sensor_id;sensor_type;location;lat;lon;timestamp;P1;durP1;ratioP1;P2;durP2;ratioP2
49502;SDS011;35409;48.776;9.204;2023-03-14T00:00:14;0.47;;;0.32;;
49502;SDS011;35409;48.776;9.204;2023-03-14T00:02:40;0.50;;;0.30;;
49502;SDS011;35409;48.776;9.204;2023-03-14T00:05:06;1.08;;;0.32;;
49502;SDS011;35409;48.776;9.204;2023-03-14T00:07:36;0.35;;;0.25;;
49502;SDS011;35409;48.776;9.204;2023-03-14T00:10:07;1.75;;;0.43;;
49502;SDS011;35409;48.776;9.204;2023-03-14T00:12:33;3.78;;;0.47;;
49502;SDS011;35409;48.776;9.204;2023-03-14T00:14:59;5.32;;;0.90;;
49502;SDS011;35409;48.776;9.204;2023-03-14T00:17:28;3.25;;;0.40;;
49502;SDS011;35409;48.776;9.204;2023-03-14T00:19:54;2.30;;;0.60;;
49502;SDS011;35409;48.776;9.204;2023-03-14T00:22:20;1.75;;;0.55;;
49502;SDS011;35409;48.776;9.204;2023-03-14T00:24:46;0.45;;;0.40;;
49502;SDS011;35409;48.776;9.204;2023-03-14T00:27:12;0.40;;;0.40;;
49502;SDS011;35409;48.776;9.204;2023-03-14T00:29:38;0.93;;;0.50;;
49502;SDS011;35409;48.776;9.204;2023-03-14T00:32:04;1.70;;;0.43;;
49502;SDS011;35409;48.776;9.204;2023-03-14T00:34:31;1.67;;;0.63;;
49502;SDS011;35409;48.776;9.204;2023-03-14T00:36:57;0.40;;;0.40;;
49502;SDS011;35409;48.776;9.204;2023-03-14T00:39:23;1.45;;;0.63;;
49502;SDS011;35409;48.776;9.204;2023-03-14T00:41:49;1.40;;;0.40;;
49502;SDS011;35409;48.776;9.204;2023-03-14T00:44:15;0.80;;;0.40;;
49502;SDS011;35409;48.776;9.204;2023-03-14T00:46:41;0.65;;;0.57;;
49502;SDS011;35409;48.776;9.204;2023-03-14T00:49:07;1.23;;;0.65;;
49502;SDS011;35409;48.776;9.204;2023-03-14T00:51:33;3.30;;;0.40;;
49502;SDS011;35409;48.776;9.204;2023-03-14T00:53:59;0.95;;;0.52;;
49502;SDS011;35409;48.776;9.204;2023-03-14T00:56:25;3.65;;;0.38;;
49502;SDS011;35409;48.776;9.204;2023-03-14T00:58:54;1.60;;;0.40;;
49502;SDS011;35409;48.776;9.204;2023-03-14T01:01:21;0.60;;;0.35;;
49502;SDS011;35409;48.776;9.204;2023-03-14T01:03:47;2.15;;;0.30;;
49502;SDS011;35409;48.776;9.204;2023-03-14T01:06:15;0.93;;;0.43;;
49502;SDS011;35409;48.776;9.204;2023-03-14T01:08:41;0.20;;;0.20;;
49502;SDS011;35409;48.776;9.204;2023-03-14T01:11:08;0.30;;;0.28;;
49502;SDS011;35409;48.776;9.204;2023-03-14T01:13:34;1.70;;;0.40;;
49502;SDS011;35409;48.776;9.204;2023-03-14T01:16:02;0.65;;;0.25;;
49502;SDS011;35409;48.776;9.204;2023-03-14T01:18:29;0.93;;;0.40;;
49502;SDS011;35409;48.776;9.204;2023-03-14T01:20:55;0.38;;;0.38;;
49502;SDS011;35409;48.776;9.204;2023-03-14T01:23:21;0.20;;;0.20;;
49502;SDS011;35409;48.776;9.204;2023-03-14T01:25:47;0.40;;;0.20;;
49502;SDS011;35409;48.776;9.204;2023-03-14T01:28:13;0.40;;;0.30;;
49502;SDS011;35409;48.776;9.204;2023-03-14T01:30:39;0.57;;;0.38;;
49502;SDS011;35409;48.776;9.204;2023-03-14T01:33:05;0.35;;;0.30;;
49502;SDS011;35409;48.776;9.204;2023-03-14T01:35:31;0.35;;;0.28;;
49502;SDS011;35409;48.776;9.204;2023-03-14T01:37:57;0.20;;;0.20;;
49502;SDS011;35409;48.776;9.204;2023-03-14T01:40:23;0.25;;;0.25;;
49502;SDS011;35409;48.776;9.204;2023-03-14T01:42:56;0.20;;;0.20;;
49502;SDS011;35409;48.776;9.204;2023-03-14T01:48:07;1.10;;;0.47;;
49502;SDS011;35409;48.776;9.204;2023-03-14T01:50:33;0.68;;;0.30;;
49502;SDS011;35409;48.776;9.204;2023-03-14T01:52:59;1.45;;;0.40;;
49502;SDS011;35409;48.776;9.204;2023-03-14T01:55:25;0.90;;;0.40;;
49502;SDS011;35409;48.776;9.204;2023-03-14T01:57:52;0.20;;;0.20;;
49502;SDS011;35409;48.776;9.204;2023-03-14T02:00:21;1.98;;;0.20;;
49502;SDS011;35409;48.776;9.204;2023-03-14T02:02:48;1.98;;;0.40;;
49502;SDS011;35409;48.776;9.204;2023-03-14T02:05:16;0.70;;;0.30;;
49502;SDS011;35409;48.776;9.204;2023-03-14T02:07:47;3.00;;;0.68;;
49502;SDS011;35409;48.776;9.204;2023-03-14T02:10:16;0.63;;;0.13;;
49502;SDS011;35409;48.776;9.204;2023-03-14T02:12:44;0.32;;;0.30;;
49502;SDS011;35409;48.776;9.204;2023-03-14T02:15:10;0.63;;;0.20;;
49502;SDS011;35409;48.776;9.204;2023-03-14T02:17:36;1.15;;;0.30;;
49502;SDS011;35409;48.776;9.204;2023-03-14T02:22:33;0.70;;;0.30;;
49502;SDS011;35409;48.776;9.204;2023-03-14T02:27:43;0.43;;;0.10;;
49502;SDS011;35409;48.776;9.204;2023-03-14T02:30:20;1.15;;;0.30;;
49502;SDS011;35409;48.776;9.204;2023-03-14T02:32:47;0.50;;;0.40;;
49502;SDS011;35409;48.776;9.204;2023-03-14T02:35:17;1.70;;;0.35;;
49502;SDS011;35409;48.776;9.204;2023-03-14T02:40:12;0.45;;;0.30;;
49502;SDS011;35409;48.776;9.204;2023-03-14T02:42:38;0.47;;;0.25;;
49502;SDS011;35409;48.776;9.204;2023-03-14T02:47:33;1.25;;;0.22;;
49502;SDS011;35409;48.776;9.204;2023-03-14T02:50:04;0.28;;;0.28;;
49502;SDS011;35409;48.776;9.204;2023-03-14T02:52:30;1.98;;;0.25;;
49502;SDS011;35409;48.776;9.204;2023-03-14T02:54:57;1.10;;;0.20;;
49502;SDS011;35409;48.776;9.204;2023-03-14T02:57:23;1.02;;;0.13;;
49502;SDS011;35409;48.776;9.204;2023-03-14T02:59:49;0.20;;;0.20;;
49502;SDS011;35409;48.776;9.204;2023-03-14T03:02:15;1.65;;;0.40;;
49502;SDS011;35409;48.776;9.204;2023-03-14T03:04:40;0.47;;;0.30;;
49502;SDS011;35409;48.776;9.204;2023-03-14T03:07:06;2.00;;;0.40;;
49502;SDS011;35409;48.776;9.204;2023-03-14T03:09:32;2.05;;;0.38;;
49502;SDS011;35409;48.776;9.204;2023-03-14T03:11:58;1.95;;;0.30;;
49502;SDS011;35409;48.776;9.204;2023-03-14T03:14:24;1.08;;;0.30;;
49502;SDS011;35409;48.776;9.204;2023-03-14T03:16:50;0.40;;;0.40;;
49502;SDS011;35409;48.776;9.204;2023-03-14T03:19:16;5.03;;;0.40;;
49502;SDS011;35409;48.776;9.204;2023-03-14T03:21:43;1.17;;;0.50;;
49502;SDS011;35409;48.776;9.204;2023-03-14T03:24:09;2.42;;;0.40;;
49502;SDS011;35409;48.776;9.204;2023-03-14T03:26:35;0.90;;;0.30;;
49502;SDS011;35409;48.776;9.204;2023-03-14T03:29:01;0.63;;;0.50;;
49502;SDS011;35409;48.776;9.204;2023-03-14T03:31:27;1.77;;;0.32;;
49502;SDS011;35409;48.776;9.204;2023-03-14T03:33:54;2.72;;;0.45;;
49502;SDS011;35409;48.776;9.204;2023-03-14T03:36:20;2.00;;;0.40;;
49502;SDS011;35409;48.776;9.204;2023-03-14T03:38:47;1.88;;;0.38;;
49502;SDS011;35409;48.776;9.204;2023-03-14T03:41:13;3.08;;;0.52;;
49502;SDS011;35409;48.776;9.204;2023-03-14T03:43:39;2.50;;;0.43;;
49502;SDS011;35409;48.776;9.204;2023-03-14T03:46:06;2.60;;;0.47;;
49502;SDS011;35409;48.776;9.204;2023-03-14T03:48:32;2.92;;;0.70;;
49502;SDS011;35409;48.776;9.204;2023-03-14T03:50:58;4.25;;;0.63;;
49502;SDS011;35409;48.776;9.204;2023-03-14T03:53:24;4.43;;;0.80;;
49502;SDS011;35409;48.776;9.204;2023-03-14T03:55:50;0.80;;;0.30;;
49502;SDS011;35409;48.776;9.204;2023-03-14T03:58:16;3.40;;;0.50;;
49502;SDS011;35409;48.776;9.204;2023-03-14T04:00:42;3.80;;;0.60;;
49502;SDS011;35409;48.776;9.204;2023-03-14T04:03:08;3.85;;;0.90;;
49502;SDS011;35409;48.776;9.204;2023-03-14T04:05:34;3.10;;;0.55;;
49502;SDS011;35409;48.776;9.204;2023-03-14T04:08:00;1.63;;;0.60;;
49502;SDS011;35409;48.776;9.204;2023-03-14T04:10:26;4.53;;;0.95;;
49502;SDS011;35409;48.776;9.204;2023-03-14T04:12:52;4.20;;;0.60;;
49502;SDS011;35409;48.776;9.204;2023-03-14T04:15:18;4.75;;;0.60;;
49502;SDS011;35409;48.776;9.204;2023-03-14T04:17:44;3.60;;;1.23;;
49502;SDS011;35409;48.776;9.204;2023-03-14T04:20:10;4.70;;;1.00;;
49502;SDS011;35409;48.776;9.204;2023-03-14T04:22:37;3.97;;;0.65;;
49502;SDS011;35409;48.776;9.204;2023-03-14T04:25:03;3.10;;;0.65;;
49502;SDS011;35409;48.776;9.204;2023-03-14T04:27:29;5.00;;;1.35;;
49502;SDS011;35409;48.776;9.204;2023-03-14T04:29:55;5.22;;;0.90;;
49502;SDS011;35409;48.776;9.204;2023-03-14T04:32:21;4.30;;;0.77;;
49502;SDS011;35409;48.776;9.204;2023-03-14T04:34:47;2.60;;;1.00;;
49502;SDS011;35409;48.776;9.204;2023-03-14T04:37:13;4.50;;;1.02;;
49502;SDS011;35409;48.776;9.204;2023-03-14T04:39:39;5.82;;;0.80;;
49502;SDS011;35409;48.776;9.204;2023-03-14T04:42:05;4.88;;;0.90;;
49502;SDS011;35409;48.776;9.204;2023-03-14T04:44:31;5.22;;;1.10;;
49502;SDS011;35409;48.776;9.204;2023-03-14T04:46:57;2.55;;;0.60;;
49502;SDS011;35409;48.776;9.204;2023-03-14T04:49:23;5.57;;;1.15;;
49502;SDS011;35409;48.776;9.204;2023-03-14T04:51:49;3.38;;;0.82;;
49502;SDS011;35409;48.776;9.204;2023-03-14T04:54:16;3.47;;;1.13;;
49502;SDS011;35409;48.776;9.204;2023-03-14T04:56:42;4.30;;;0.85;;
49502;SDS011;35409;48.776;9.204;2023-03-14T04:59:08;4.95;;;1.05;;
49502;SDS011;35409;48.776;9.204;2023-03-14T05:01:34;3.92;;;0.90;;
49502;SDS011;35409;48.776;9.204;2023-03-14T05:04:01;2.63;;;0.90;;
49502;SDS011;35409;48.776;9.204;2023-03-14T05:06:27;2.42;;;0.88;;
49502;SDS011;35409;48.776;9.204;2023-03-14T05:08:53;3.67;;;0.90;;
49502;SDS011;35409;48.776;9.204;2023-03-14T05:11:19;3.63;;;0.80;;
49502;SDS011;35409;48.776;9.204;2023-03-14T05:13:45;5.40;;;0.90;;
49502;SDS011;35409;48.776;9.204;2023-03-14T05:16:11;4.47;;;1.17;;
49502;SDS011;35409;48.776;9.204;2023-03-14T05:18:37;6.45;;;1.80;;
49502;SDS011;35409;48.776;9.204;2023-03-14T05:21:03;4.88;;;1.25;;
49502;SDS011;35409;48.776;9.204;2023-03-14T05:23:30;4.47;;;1.85;;
49502;SDS011;35409;48.776;9.204;2023-03-14T05:26:02;5.35;;;1.75;;
49502;SDS011;35409;48.776;9.204;2023-03-14T05:28:28;5.57;;;1.20;;
49502;SDS011;35409;48.776;9.204;2023-03-14T05:30:53;5.45;;;0.77;;
49502;SDS011;35409;48.776;9.204;2023-03-14T05:33:19;6.43;;;0.90;;
49502;SDS011;35409;48.776;9.204;2023-03-14T05:35:46;2.25;;;0.80;;
49502;SDS011;35409;48.776;9.204;2023-03-14T05:38:12;5.00;;;0.80;;
49502;SDS011;35409;48.776;9.204;2023-03-14T05:40:38;2.85;;;1.20;;
49502;SDS011;35409;48.776;9.204;2023-03-14T05:43:03;2.90;;;1.13;;
49502;SDS011;35409;48.776;9.204;2023-03-14T05:45:32;6.93;;;0.90;;
49502;SDS011;35409;48.776;9.204;2023-03-14T05:47:59;9.32;;;1.10;;
49502;SDS011;35409;48.776;9.204;2023-03-14T05:50:25;3.58;;;0.80;;
49502;SDS011;35409;48.776;9.204;2023-03-14T05:52:51;6.22;;;0.88;;
49502;SDS011;35409;48.776;9.204;2023-03-14T05:55:17;4.22;;;0.90;;
49502;SDS011;35409;48.776;9.204;2023-03-14T05:57:43;4.15;;;0.63;;
49502;SDS011;35409;48.776;9.204;2023-03-14T06:00:09;5.05;;;1.10;;
49502;SDS011;35409;48.776;9.204;2023-03-14T06:02:35;3.00;;;0.88;;
49502;SDS011;35409;48.776;9.204;2023-03-14T06:05:01;4.43;;;0.52;;
49502;SDS011;35409;48.776;9.204;2023-03-14T06:07:27;3.78;;;0.85;;
49502;SDS011;35409;48.776;9.204;2023-03-14T06:09:53;3.25;;;0.70;;
49502;SDS011;35409;48.776;9.204;2023-03-14T06:12:19;4.97;;;0.80;;
49502;SDS011;35409;48.776;9.204;2023-03-14T06:14:45;4.13;;;0.60;;
49502;SDS011;35409;48.776;9.204;2023-03-14T06:17:11;5.43;;;0.90;;
49502;SDS011;35409;48.776;9.204;2023-03-14T06:19:36;4.18;;;0.60;;
49502;SDS011;35409;48.776;9.204;2023-03-14T06:22:02;3.22;;;0.77;;
49502;SDS011;35409;48.776;9.204;2023-03-14T06:24:28;4.03;;;0.80;;
49502;SDS011;35409;48.776;9.204;2023-03-14T06:26:54;4.07;;;0.95;;
49502;SDS011;35409;48.776;9.204;2023-03-14T06:29:20;2.60;;;0.65;;
49502;SDS011;35409;48.776;9.204;2023-03-14T06:31:46;2.55;;;0.68;;
49502;SDS011;35409;48.776;9.204;2023-03-14T06:34:12;3.13;;;0.60;;
49502;SDS011;35409;48.776;9.204;2023-03-14T06:36:38;1.95;;;0.60;;
49502;SDS011;35409;48.776;9.204;2023-03-14T06:39:04;6.10;;;0.77;;
49502;SDS011;35409;48.776;9.204;2023-03-14T06:41:30;5.40;;;1.00;;
49502;SDS011;35409;48.776;9.204;2023-03-14T06:43:57;6.10;;;0.70;;
49502;SDS011;35409;48.776;9.204;2023-03-14T06:46:23;3.03;;;0.70;;
49502;SDS011;35409;48.776;9.204;2023-03-14T06:48:49;0.98;;;0.45;;
49502;SDS011;35409;48.776;9.204;2023-03-14T06:51:16;2.95;;;0.88;;
49502;SDS011;35409;48.776;9.204;2023-03-14T06:53:42;4.85;;;0.80;;
49502;SDS011;35409;48.776;9.204;2023-03-14T06:56:08;3.03;;;0.45;;
49502;SDS011;35409;48.776;9.204;2023-03-14T06:58:34;2.67;;;0.70;;
49502;SDS011;35409;48.776;9.204;2023-03-14T07:01:00;3.90;;;0.70;;
49502;SDS011;35409;48.776;9.204;2023-03-14T07:03:26;1.65;;;0.70;;
49502;SDS011;35409;48.776;9.204;2023-03-14T07:05:53;6.10;;;1.10;;
49502;SDS011;35409;48.776;9.204;2023-03-14T07:08:19;2.78;;;0.60;;
49502;SDS011;35409;48.776;9.204;2023-03-14T07:10:45;3.35;;;0.52;;
49502;SDS011;35409;48.776;9.204;2023-03-14T07:13:11;4.80;;;0.50;;
49502;SDS011;35409;48.776;9.204;2023-03-14T07:15:37;5.03;;;0.55;;
49502;SDS011;35409;48.776;9.204;2023-03-14T07:18:03;3.55;;;0.40;;
49502;SDS011;35409;48.776;9.204;2023-03-14T07:20:29;1.10;;;0.30;;
49502;SDS011;35409;48.776;9.204;2023-03-14T07:22:57;1.20;;;0.20;;
49502;SDS011;35409;48.776;9.204;2023-03-14T07:25:25;1.17;;;0.30;;
49502;SDS011;35409;48.776;9.204;2023-03-14T07:27:51;1.98;;;0.40;;
49502;SDS011;35409;48.776;9.204;2023-03-14T07:30:17;1.15;;;0.57;;
49502;SDS011;35409;48.776;9.204;2023-03-14T07:32:43;1.08;;;0.40;;
49502;SDS011;35409;48.776;9.204;2023-03-14T07:35:09;1.75;;;0.38;;
49502;SDS011;35409;48.776;9.204;2023-03-14T07:37:35;1.65;;;0.32;;
49502;SDS011;35409;48.776;9.204;2023-03-14T07:40:01;1.77;;;0.30;;
49502;SDS011;35409;48.776;9.204;2023-03-14T07:42:30;2.33;;;0.43;;
49502;SDS011;35409;48.776;9.204;2023-03-14T07:44:56;2.20;;;0.40;;
49502;SDS011;35409;48.776;9.204;2023-03-14T07:47:22;2.92;;;0.32;;
49502;SDS011;35409;48.776;9.204;2023-03-14T07:49:48;2.92;;;0.60;;
49502;SDS011;35409;48.776;9.204;2023-03-14T07:52:14;0.38;;;0.20;;
49502;SDS011;35409;48.776;9.204;2023-03-14T07:54:40;2.03;;;0.52;;
49502;SDS011;35409;48.776;9.204;2023-03-14T07:57:06;2.33;;;0.50;;
49502;SDS011;35409;48.776;9.204;2023-03-14T07:59:32;1.38;;;0.25;;
49502;SDS011;35409;48.776;9.204;2023-03-14T08:01:58;1.02;;;0.32;;
49502;SDS011;35409;48.776;9.204;2023-03-14T08:04:24;4.60;;;0.55;;
49502;SDS011;35409;48.776;9.204;2023-03-14T08:06:50;1.85;;;0.60;;
49502;SDS011;35409;48.776;9.204;2023-03-14T08:09:16;1.83;;;0.50;;
49502;SDS011;35409;48.776;9.204;2023-03-14T08:11:42;2.72;;;0.43;;
49502;SDS011;35409;48.776;9.204;2023-03-14T08:14:08;0.40;;;0.30;;
49502;SDS011;35409;48.776;9.204;2023-03-14T08:16:35;3.05;;;0.50;;
49502;SDS011;35409;48.776;9.204;2023-03-14T08:19:01;2.65;;;0.90;;
49502;SDS011;35409;48.776;9.204;2023-03-14T08:21:27;2.70;;;0.65;;
49502;SDS011;35409;48.776;9.204;2023-03-14T08:23:53;0.25;;;0.25;;
49502;SDS011;35409;48.776;9.204;2023-03-14T08:26:19;1.52;;;0.40;;
49502;SDS011;35409;48.776;9.204;2023-03-14T08:28:45;2.30;;;0.50;;
49502;SDS011;35409;48.776;9.204;2023-03-14T08:31:11;4.35;;;0.60;;
49502;SDS011;35409;48.776;9.204;2023-03-14T08:33:38;1.05;;;0.30;;
49502;SDS011;35409;48.776;9.204;2023-03-14T08:36:04;0.88;;;0.50;;
49502;SDS011;35409;48.776;9.204;2023-03-14T08:38:30;2.38;;;0.47;;
49502;SDS011;35409;48.776;9.204;2023-03-14T08:40:59;2.88;;;0.57;;
49502;SDS011;35409;48.776;9.204;2023-03-14T08:43:25;3.55;;;0.57;;
49502;SDS011;35409;48.776;9.204;2023-03-14T08:45:51;2.75;;;0.50;;
49502;SDS011;35409;48.776;9.204;2023-03-14T08:48:17;1.92;;;0.90;;
49502;SDS011;35409;48.776;9.204;2023-03-14T08:50:44;2.40;;;0.30;;
49502;SDS011;35409;48.776;9.204;2023-03-14T08:53:11;1.55;;;0.38;;
49502;SDS011;35409;48.776;9.204;2023-03-14T08:55:36;2.92;;;0.45;;
49502;SDS011;35409;48.776;9.204;2023-03-14T08:58:02;0.95;;;0.30;;
49502;SDS011;35409;48.776;9.204;2023-03-14T09:00:28;1.77;;;0.30;;
49502;SDS011;35409;48.776;9.204;2023-03-14T09:02:54;1.38;;;0.17;;
49502;SDS011;35409;48.776;9.204;2023-03-14T09:05:20;0.43;;;0.20;;
49502;SDS011;35409;48.776;9.204;2023-03-14T09:07:46;1.92;;;0.22;;
49502;SDS011;35409;48.776;9.204;2023-03-14T09:10:12;2.05;;;0.25;;
49502;SDS011;35409;48.776;9.204;2023-03-14T09:12:38;1.20;;;0.20;;
49502;SDS011;35409;48.776;9.204;2023-03-14T09:15:04;1.63;;;0.32;;
49502;SDS011;35409;48.776;9.204;2023-03-14T09:17:31;1.55;;;0.20;;
49502;SDS011;35409;48.776;9.204;2023-03-14T09:19:57;1.73;;;0.40;;
49502;SDS011;35409;48.776;9.204;2023-03-14T09:22:23;1.30;;;0.20;;
49502;SDS011;35409;48.776;9.204;2023-03-14T09:24:48;0.63;;;0.13;;
49502;SDS011;35409;48.776;9.204;2023-03-14T09:27:14;1.65;;;0.30;;
49502;SDS011;35409;48.776;9.204;2023-03-14T09:29:40;1.73;;;0.20;;
49502;SDS011;35409;48.776;9.204;2023-03-14T09:32:07;1.45;;;0.30;;
49502;SDS011;35409;48.776;9.204;2023-03-14T09:34:33;3.13;;;0.30;;
49502;SDS011;35409;48.776;9.204;2023-03-14T09:36:59;3.25;;;0.20;;
49502;SDS011;35409;48.776;9.204;2023-03-14T09:39:30;1.63;;;0.30;;
49502;SDS011;35409;48.776;9.204;2023-03-14T09:44:29;0.20;;;0.15;;
49502;SDS011;35409;48.776;9.204;2023-03-14T09:46:57;2.75;;;0.38;;
49502;SDS011;35409;48.776;9.204;2023-03-14T09:49:27;2.95;;;0.32;;
49502;SDS011;35409;48.776;9.204;2023-03-14T09:51:54;1.42;;;0.22;;
49502;SDS011;35409;48.776;9.204;2023-03-14T09:56:53;0.43;;;0.28;;
49502;SDS011;35409;48.776;9.204;2023-03-14T09:59:19;0.90;;;0.30;;
49502;SDS011;35409;48.776;9.204;2023-03-14T10:01:46;0.80;;;0.55;;
49502;SDS011;35409;48.776;9.204;2023-03-14T10:04:13;0.43;;;0.20;;
49502;SDS011;35409;48.776;9.204;2023-03-14T10:06:40;2.17;;;0.30;;
49502;SDS011;35409;48.776;9.204;2023-03-14T10:09:08;0.52;;;0.30;;
49502;SDS011;35409;48.776;9.204;2023-03-14T10:11:37;0.40;;;0.20;;
49502;SDS011;35409;48.776;9.204;2023-03-14T10:16:35;0.73;;;0.20;;
49502;SDS011;35409;48.776;9.204;2023-03-14T10:19:06;0.65;;;0.20;;
49502;SDS011;35409;48.776;9.204;2023-03-14T10:21:39;1.45;;;0.20;;
49502;SDS011;35409;48.776;9.204;2023-03-14T10:26:40;1.00;;;0.30;;
49502;SDS011;35409;48.776;9.204;2023-03-14T10:29:10;1.55;;;0.40;;
49502;SDS011;35409;48.776;9.204;2023-03-14T10:31:47;0.82;;;0.10;;
49502;SDS011;35409;48.776;9.204;2023-03-14T10:34:20;2.45;;;0.10;;
49502;SDS011;35409;48.776;9.204;2023-03-14T10:36:46;1.27;;;0.20;;
49502;SDS011;35409;48.776;9.204;2023-03-14T10:41:47;0.57;;;0.20;;
49502;SDS011;35409;48.776;9.204;2023-03-14T10:46:39;0.13;;;0.10;;
49502;SDS011;35409;48.776;9.204;2023-03-14T10:49:06;1.70;;;0.25;;
49502;SDS011;35409;48.776;9.204;2023-03-14T10:51:32;2.05;;;0.30;;
49502;SDS011;35409;48.776;9.204;2023-03-14T10:53:59;0.32;;;0.17;;
49502;SDS011;35409;48.776;9.204;2023-03-14T10:56:26;1.60;;;0.40;;
49502;SDS011;35409;48.776;9.204;2023-03-14T10:58:53;1.13;;;0.30;;
49502;SDS011;35409;48.776;9.204;2023-03-14T11:06:46;2.15;;;0.22;;
49502;SDS011;35409;48.776;9.204;2023-03-14T11:11:39;0.75;;;0.20;;
49502;SDS011;35409;48.776;9.204;2023-03-14T11:16:56;0.60;;;0.20;;
49502;SDS011;35409;48.776;9.204;2023-03-14T11:22:14;0.77;;;0.15;;
49502;SDS011;35409;48.776;9.204;2023-03-14T11:25:00;0.95;;;0.30;;
49502;SDS011;35409;48.776;9.204;2023-03-14T11:30:12;3.65;;;0.25;;
49502;SDS011;35409;48.776;9.204;2023-03-14T11:35:25;0.20;;;0.13;;
49502;SDS011;35409;48.776;9.204;2023-03-14T11:37:53;0.25;;;0.10;;
49502;SDS011;35409;48.776;9.204;2023-03-14T11:40:21;0.40;;;0.10;;
49502;SDS011;35409;48.776;9.204;2023-03-14T11:42:53;0.43;;;0.20;;
49502;SDS011;35409;48.776;9.204;2023-03-14T11:45:22;0.90;;;0.35;;
49502;SDS011;35409;48.776;9.204;2023-03-14T11:47:52;0.80;;;0.20;;
49502;SDS011;35409;48.776;9.204;2023-03-14T11:50:21;0.88;;;0.20;;
49502;SDS011;35409;48.776;9.204;2023-03-14T11:57:46;1.13;;;0.20;;
49502;SDS011;35409;48.776;9.204;2023-03-14T12:00:20;1.38;;;0.25;;
49502;SDS011;35409;48.776;9.204;2023-03-14T12:08:37;0.20;;;0.20;;
49502;SDS011;35409;48.776;9.204;2023-03-14T12:11:14;0.75;;;0.32;;
49502;SDS011;35409;48.776;9.204;2023-03-14T12:13:41;0.75;;;0.10;;
49502;SDS011;35409;48.776;9.204;2023-03-14T12:18:46;0.10;;;0.10;;
49502;SDS011;35409;48.776;9.204;2023-03-14T12:21:12;0.95;;;0.20;;
49502;SDS011;35409;48.776;9.204;2023-03-14T12:23:45;0.25;;;0.25;;
49502;SDS011;35409;48.776;9.204;2023-03-14T12:29:22;0.20;;;0.20;;
49502;SDS011;35409;48.776;9.204;2023-03-14T12:39:32;0.20;;;0.20;;
49502;SDS011;35409;48.776;9.204;2023-03-14T12:42:02;1.27;;;0.22;;
49502;SDS011;35409;48.776;9.204;2023-03-14T12:49:39;0.77;;;0.77;;
49502;SDS011;35409;48.776;9.204;2023-03-14T12:52:11;0.55;;;0.40;;
49502;SDS011;35409;48.776;9.204;2023-03-14T12:54:50;0.70;;;0.30;;
49502;SDS011;35409;48.776;9.204;2023-03-14T13:00:23;1.85;;;0.45;;
49502;SDS011;35409;48.776;9.204;2023-03-14T13:03:00;1.67;;;0.25;;
49502;SDS011;35409;48.776;9.204;2023-03-14T13:05:40;2.95;;;0.50;;
49502;SDS011;35409;48.776;9.204;2023-03-14T13:08:31;2.40;;;0.40;;
49502;SDS011;35409;48.776;9.204;2023-03-14T13:11:20;1.58;;;0.50;;
49502;SDS011;35409;48.776;9.204;2023-03-14T13:13:49;1.17;;;0.60;;
49502;SDS011;35409;48.776;9.204;2023-03-14T13:16:23;0.82;;;0.40;;
49502;SDS011;35409;48.776;9.204;2023-03-14T13:18:49;1.17;;;0.28;;
49502;SDS011;35409;48.776;9.204;2023-03-14T13:21:25;1.45;;;0.40;;
49502;SDS011;35409;48.776;9.204;2023-03-14T13:23:54;3.42;;;0.60;;
49502;SDS011;35409;48.776;9.204;2023-03-14T13:26:25;0.77;;;0.50;;
49502;SDS011;35409;48.776;9.204;2023-03-14T13:28:58;1.77;;;0.30;;
49502;SDS011;35409;48.776;9.204;2023-03-14T13:31:25;1.10;;;0.32;;
49502;SDS011;35409;48.776;9.204;2023-03-14T13:34:01;1.77;;;0.50;;
49502;SDS011;35409;48.776;9.204;2023-03-14T13:36:31;1.17;;;0.40;;
49502;SDS011;35409;48.776;9.204;2023-03-14T13:38:58;1.50;;;0.40;;
49502;SDS011;35409;48.776;9.204;2023-03-14T13:41:26;0.45;;;0.30;;
49502;SDS011;35409;48.776;9.204;2023-03-14T13:43:56;1.85;;;0.52;;
49502;SDS011;35409;48.776;9.204;2023-03-14T13:46:34;1.17;;;0.73;;
49502;SDS011;35409;48.776;9.204;2023-03-14T13:49:05;4.85;;;1.13;;
49502;SDS011;35409;48.776;9.204;2023-03-14T13:51:37;3.00;;;1.13;;
49502;SDS011;35409;48.776;9.204;2023-03-14T13:54:11;3.80;;;0.70;;
49502;SDS011;35409;48.776;9.204;2023-03-14T13:56:40;2.22;;;0.60;;
49502;SDS011;35409;48.776;9.204;2023-03-14T13:59:20;1.35;;;0.38;;
49502;SDS011;35409;48.776;9.204;2023-03-14T14:01:50;4.57;;;0.52;;
49502;SDS011;35409;48.776;9.204;2023-03-14T14:04:18;1.70;;;0.60;;
49502;SDS011;35409;48.776;9.204;2023-03-14T14:06:47;1.48;;;0.52;;
49502;SDS011;35409;48.776;9.204;2023-03-14T14:09:25;2.17;;;0.73;;
49502;SDS011;35409;48.776;9.204;2023-03-14T14:11:58;1.08;;;0.30;;
49502;SDS011;35409;48.776;9.204;2023-03-14T14:17:01;3.63;;;0.60;;
49502;SDS011;35409;48.776;9.204;2023-03-14T14:19:31;2.80;;;0.60;;
49502;SDS011;35409;48.776;9.204;2023-03-14T14:22:00;7.70;;;0.55;;
49502;SDS011;35409;48.776;9.204;2023-03-14T14:24:28;2.90;;;0.50;;
49502;SDS011;35409;48.776;9.204;2023-03-14T14:27:07;1.50;;;0.43;;
49502;SDS011;35409;48.776;9.204;2023-03-14T14:29:34;8.07;;;0.50;;
49502;SDS011;35409;48.776;9.204;2023-03-14T14:32:13;2.28;;;0.40;;
49502;SDS011;35409;48.776;9.204;2023-03-14T14:37:14;4.20;;;0.40;;
49502;SDS011;35409;48.776;9.204;2023-03-14T14:40:09;3.70;;;0.60;;
49502;SDS011;35409;48.776;9.204;2023-03-14T14:42:41;1.60;;;0.52;;
49502;SDS011;35409;48.776;9.204;2023-03-14T14:45:11;3.05;;;0.57;;
49502;SDS011;35409;48.776;9.204;2023-03-14T14:47:51;2.70;;;0.65;;
49502;SDS011;35409;48.776;9.204;2023-03-14T14:52:56;1.90;;;0.52;;
49502;SDS011;35409;48.776;9.204;2023-03-14T14:55:23;4.30;;;0.68;;
49502;SDS011;35409;48.776;9.204;2023-03-14T14:57:56;2.78;;;0.60;;
49502;SDS011;35409;48.776;9.204;2023-03-14T15:00:23;4.40;;;1.02;;
49502;SDS011;35409;48.776;9.204;2023-03-14T15:02:51;8.95;;;0.70;;
49502;SDS011;35409;48.776;9.204;2023-03-14T15:05:21;6.03;;;0.73;;
49502;SDS011;35409;48.776;9.204;2023-03-14T15:07:48;2.25;;;0.65;;
49502;SDS011;35409;48.776;9.204;2023-03-14T15:10:20;6.28;;;0.75;;
49502;SDS011;35409;48.776;9.204;2023-03-14T15:12:48;2.38;;;0.73;;
49502;SDS011;35409;48.776;9.204;2023-03-14T15:15:14;5.15;;;1.00;;
49502;SDS011;35409;48.776;9.204;2023-03-14T15:17:41;3.28;;;0.80;;
49502;SDS011;35409;48.776;9.204;2023-03-14T15:20:09;3.78;;;0.60;;
49502;SDS011;35409;48.776;9.204;2023-03-14T15:22:38;3.78;;;0.73;;
49502;SDS011;35409;48.776;9.204;2023-03-14T15:25:07;3.35;;;0.77;;
49502;SDS011;35409;48.776;9.204;2023-03-14T15:27:33;4.70;;;1.38;;
49502;SDS011;35409;48.776;9.204;2023-03-14T15:29:59;2.90;;;0.55;;
49502;SDS011;35409;48.776;9.204;2023-03-14T15:32:25;8.30;;;0.93;;
49502;SDS011;35409;48.776;9.204;2023-03-14T15:34:52;6.50;;;1.13;;
49502;SDS011;35409;48.776;9.204;2023-03-14T15:37:19;3.47;;;0.85;;
49502;SDS011;35409;48.776;9.204;2023-03-14T15:39:46;5.78;;;1.00;;
49502;SDS011;35409;48.776;9.204;2023-03-14T15:42:12;2.78;;;0.88;;
49502;SDS011;35409;48.776;9.204;2023-03-14T15:44:38;4.53;;;1.02;;
49502;SDS011;35409;48.776;9.204;2023-03-14T15:47:04;4.25;;;0.80;;
49502;SDS011;35409;48.776;9.204;2023-03-14T15:49:31;3.10;;;0.60;;
49502;SDS011;35409;48.776;9.204;2023-03-14T15:51:57;1.27;;;0.60;;
49502;SDS011;35409;48.776;9.204;2023-03-14T15:54:23;4.28;;;0.70;;
49502;SDS011;35409;48.776;9.204;2023-03-14T15:56:48;2.20;;;0.70;;
49502;SDS011;35409;48.776;9.204;2023-03-14T15:59:14;3.03;;;0.77;;
49502;SDS011;35409;48.776;9.204;2023-03-14T16:01:40;3.65;;;0.60;;
49502;SDS011;35409;48.776;9.204;2023-03-14T16:04:05;2.25;;;0.60;;
49502;SDS011;35409;48.776;9.204;2023-03-14T16:06:31;4.53;;;0.90;;
49502;SDS011;35409;48.776;9.204;2023-03-14T16:08:57;2.20;;;0.80;;
49502;SDS011;35409;48.776;9.204;2023-03-14T16:11:23;1.60;;;0.90;;
49502;SDS011;35409;48.776;9.204;2023-03-14T16:13:48;5.97;;;0.70;;
49502;SDS011;35409;48.776;9.204;2023-03-14T16:16:14;2.63;;;0.77;;